Terminal Aerodrome Forecast
Issued by NWS Shreveport, LA

Home | Current Version | Previous Version | Text Only | Print | Product List | Glossary On
Versions: 1 2 3 4 5 6 7 8 9 10 11 12 13 14 15 16 17
233
FTUS44 KSHV 291724
TAFLFK
TAF
KLFK 291724Z 2918/3018 17010KT P6SM VCTS BKN050CB
      TEMPO 2918/2921 VRB20G40KT 2SM TSRA BR OVC020CB
     FM292200 19010KT P6SM SCT050
     FM300100 21005KT P6SM SKC
     FM301400 27012KT P6SM SKC=

USA.gov is the U.S. government's official web portal to all federal, state and local government web resources and services.